Terminal Aerodrome Forecast
Issued by NWS Grand Forks, ND

Home | Current Version | Previous Version | Text Only | Print | Product List | Glossary Off
Versions: 1 2 3 4 5 6 7 8 9 10 11 12 13 14 15 16 17 18 19 20 21 22 23 24 25 26 27 28 29 30

119
FTUS43 KFGF 272339
TAFGFK
TAF
KGFK 272339Z 2800/2824 03006KT P6SM SCT040
     FM280300 01006KT 3SM BR BKN025
     FM280700 36006KT 1/2SM FG BKN008
     FM281500 03005KT 3SM BR BKN070
     FM281600 04005KT P6SM BKN080
     FM281900 06005KT P6SM SCT110=

USA.gov is the U.S. government's official web portal to all federal, state and local government web resources and services.